Time;durP1;ratioP1;P1;durP2;ratioP2;P2;SDS_P1;SDS_P2;PMS_P1;PMS_P2;Temp;Humidity;BMP_temperature;BMP_pressure;BME280_temperature;BME280_humidity;BME280_pressure;Samples;Min_cycle;Max_cycle;Signal;HPM_P1;HPM_P2
2024/01/05 00:02:21;;;;;;;10.60;5.30;;;;;;;-2.16;83.54;100183.65;109111;1252;74438;-60
2024/01/05 00:04:48;;;;;;;9.80;5.30;;;;;;;-2.13;83.56;100183.63;108960;1253;139289;-63
2024/01/05 00:07:15;;;;;;;7.90;4.30;;;;;;;-2.11;83.47;100185.00;109056;1253;60709;-65
2024/01/05 00:09:41;;;;;;;9.30;4.70;;;;;;;-2.10;83.47;100189.37;109173;1252;73862;-65
2024/01/05 00:12:08;;;;;;;9.30;4.60;;;;;;;-2.10;83.29;100190.31;108990;1252;138623;-65
2024/01/05 00:14:38;;;;;;;7.40;4.10;;;;;;;-2.09;83.34;100193.34;109130;1253;72196;-66
2024/01/05 00:17:05;;;;;;;7.00;3.60;;;;;;;-2.08;83.25;100202.20;109032;1252;139575;-66
2024/01/05 00:19:31;;;;;;;8.20;4.10;;;;;;;-2.07;83.22;100205.20;109163;1252;60292;-67
2024/01/05 00:21:58;;;;;;;9.00;4.30;;;;;;;-2.05;83.11;100204.09;109144;1252;75839;-66
2024/01/05 00:24:25;;;;;;;8.50;3.90;;;;;;;-2.05;83.08;100207.73;105344;1253;138486;-66
2024/01/05 00:26:52;;;;;;;6.60;3.80;;;;;;;-2.02;83.20;100212.56;105160;1253;71769;-66
2024/01/05 00:29:19;;;;;;;5.30;3.00;;;;;;;-1.99;83.11;100209.69;104902;1258;138817;-66
2024/01/05 00:31:46;;;;;;;5.30;3.20;;;;;;;-1.97;83.20;100214.27;105240;1256;61495;-67
2024/01/05 00:34:12;;;;;;;7.30;3.70;;;;;;;-1.98;83.02;100212.70;105375;1256;74758;-67
2024/01/05 00:36:39;;;;;;;7.50;3.30;;;;;;;-1.98;83.01;100218.54;104982;1256;138015;-66
2024/01/05 00:39:06;;;;;;;6.00;2.80;;;;;;;-1.99;83.07;100224.77;105179;1253;71959;-67
2024/01/05 00:41:33;;;;;;;5.60;2.70;;;;;;;-2.02;83.03;100227.71;105190;1256;137753;-66
2024/01/05 00:43:59;;;;;;;4.00;2.70;;;;;;;-2.04;82.87;100229.96;105198;1252;61283;-66
2024/01/05 00:46:26;;;;;;;3.80;2.70;;;;;;;-2.06;82.83;100228.12;105113;1252;75030;-66
2024/01/05 00:48:53;;;;;;;6.00;3.10;;;;;;;-2.08;82.98;100232.42;105075;1256;138763;-66
2024/01/05 00:51:19;;;;;;;5.10;2.70;;;;;;;-2.09;82.73;100227.56;105189;1253;73106;-66
2024/01/05 00:53:46;;;;;;;4.50;2.50;;;;;;;-2.09;82.79;100228.89;105385;1253;138345;-66
2024/01/05 00:56:12;;;;;;;4.40;3.00;;;;;;;-2.10;82.78;100231.14;105208;1257;61334;-60
2024/01/05 00:58:39;;;;;;;5.00;2.70;;;;;;;-2.11;82.54;100234.30;105384;1255;74077;-59
2024/01/05 01:01:06;;;;;;;3.50;2.40;;;;;;;-2.12;82.48;100230.94;105341;1254;139938;-59
2024/01/05 01:03:33;;;;;;;5.80;2.60;;;;;;;-2.12;82.54;100229.27;109085;1252;73432;-59
2024/01/05 01:06:00;;;;;;;6.80;3.10;;;;;;;-2.10;82.45;100235.56;108964;1254;137900;-59
2024/01/05 01:08:27;;;;;;;4.40;2.40;;;;;;;-2.11;82.22;100240.16;109126;1252;60742;-60
2024/01/05 01:10:53;;;;;;;3.90;2.20;;;;;;;-2.12;82.14;100246.28;109007;1251;138309;-59
2024/01/05 01:13:20;;;;;;;4.80;2.50;;;;;;;-2.11;82.16;100248.56;109184;1252;66192;-59
2024/01/05 01:15:47;;;;;;;4.60;2.70;;;;;;;-2.11;82.04;100242.07;109095;1252;71686;-59
2024/01/05 01:18:13;;;;;;;4.70;2.50;;;;;;;-2.08;82.09;100243.42;108994;1253;138333;-59
2024/01/05 01:20:40;;;;;;;5.30;2.20;;;;;;;-2.06;81.94;100247.88;109123;1251;59662;-59
2024/01/05 01:23:06;;;;;;;5.00;2.30;;;;;;;-2.06;81.89;100249.61;109034;1251;138623;-60
2024/01/05 01:25:33;;;;;;;3.70;2.00;;;;;;;-2.05;81.77;100251.92;109144;1252;67604;-59
2024/01/05 01:28:00;;;;;;;6.70;2.80;;;;;;;-2.03;81.78;100254.47;109091;1253;72950;-59
2024/01/05 01:30:27;;;;;;;3.90;2.30;;;;;;;-2.00;81.67;100261.72;109000;1253;138111;-60
2024/01/05 01:32:53;;;;;;;3.70;2.40;;;;;;;-1.97;81.53;100259.85;109044;1252;60494;-60
2024/01/05 01:35:20;;;;;;;4.30;2.60;;;;;;;-1.97;81.50;100255.17;109025;1251;139002;-60
2024/01/05 01:37:47;;;;;;;5.20;2.40;;;;;;;-2.01;81.24;100248.21;105736;1253;65606;-60
2024/01/05 01:40:15;;;;;;;2.70;2.00;;;;;;;-2.09;81.09;100240.98;105144;1253;72855;-60
2024/01/05 01:42:49;;;;;;;4.40;2.10;;;;;;;-2.22;80.68;100240.65;105112;1257;138596;-60
2024/01/05 01:45:15;;;;;;;6.80;2.40;;;;;;;-2.39;80.43;100248.26;105323;1254;61393;-60
2024/01/05 01:47:42;;;;;;;6.10;3.20;;;;;;;-2.52;80.36;100261.45;105141;1253;138459;-64
2024/01/05 01:50:09;;;;;;;13.60;6.20;;;;;;;-2.63;80.50;100274.58;105233;1256;66189;-68
2024/01/05 01:52:40;;;;;;;28.20;12.80;;;;;;;-2.73;80.56;100282.15;105265;1253;72673;-66
2024/01/05 01:55:07;;;;;;;18.90;8.60;;;;;;;-2.85;80.57;100286.26;105113;1257;138697;-65
2024/01/05 01:57:34;;;;;;;49.40;20.30;;;;;;;-2.97;80.63;100284.90;105290;1252;61971;-66
2024/01/05 02:00:01;;;;;;;19.10;8.10;;;;;;;-3.08;80.69;100285.02;105194;1253;138672;-66
2024/01/05 02:02:29;;;;;;;7.90;3.80;;;;;;;-3.18;80.60;100289.93;105215;1257;66504;-65
2024/01/05 02:04:55;;;;;;;9.10;2.90;;;;;;;-3.28;80.66;100291.64;105253;1256;138316;-64
2024/01/05 02:07:22;;;;;;;5.10;2.40;;;;;;;-3.37;80.68;100298.05;109015;1252;59128;-60
2024/01/05 02:09:49;;;;;;;18.40;6.00;;;;;;;-3.44;80.68;100296.65;109127;1253;58981;-58
2024/01/05 02:12:15;;;;;;;12.10;5.50;;;;;;;-3.48;80.86;100299.58;108936;1252;143415;-59
2024/01/05 02:14:42;;;;;;;18.10;8.90;;;;;;;-3.54;80.86;100301.77;109106;1251;65680;-60
2024/01/05 02:17:28;;;;;;;14.00;7.20;;;;;;;-3.58;80.86;100306.44;108997;1252;147590;-65
2024/01/05 02:19:55;;;;;;;9.10;5.20;;;;;;;-3.59;80.99;100308.59;109044;1251;60663;-59
2024/01/05 02:22:22;;;;;;;8.20;3.70;;;;;;;-3.59;81.02;100311.00;109138;1253;60556;-64
2024/01/05 02:24:49;;;;;;;28.00;12.50;;;;;;;-3.60;81.04;100314.20;108924;1254;139326;-66
2024/01/05 02:27:16;;;;;;;77.00;34.80;;;;;;;-3.63;80.87;100316.70;109049;1256;65099;-66
2024/01/05 02:29:42;;;;;;;23.60;12.50;;;;;;;-3.67;80.98;100316.58;108924;1253;138693;-65
2024/01/05 02:32:09;;;;;;;26.50;13.20;;;;;;;-3.71;80.86;100319.39;109056;1251;60484;-66
2024/01/05 02:34:36;;;;;;;19.00;8.60;;;;;;;-3.75;80.85;100319.92;109119;1252;59389;-66
2024/01/05 02:37:02;;;;;;;50.70;19.50;;;;;;;-3.81;80.77;100318.96;108967;1251;139303;-60
2024/01/05 02:39:29;;;;;;;13.30;6.60;;;;;;;-3.88;80.77;100324.27;109143;1251;67123;-65
2024/01/05 02:41:56;;;;;;;6.80;4.30;;;;;;;-3.95;80.69;100323.27;109040;1252;138244;-66
2024/01/05 02:44:22;;;;;;;8.10;4.50;;;;;;;-4.00;80.72;100321.16;109097;1253;58960;-65
2024/01/05 02:46:49;;;;;;;14.00;6.20;;;;;;;-4.03;80.94;100323.61;109133;1252;60115;-59
2024/01/05 02:49:15;;;;;;;8.30;5.00;;;;;;;-4.06;81.03;100325.29;108947;1252;138772;-59
2024/01/05 02:51:43;;;;;;;8.40;4.60;;;;;;;-4.09;81.12;100328.71;106043;1255;66502;-65
2024/01/05 02:54:10;;;;;;;15.50;8.00;;;;;;;-4.10;81.27;100332.73;108959;1252;138493;-59
2024/01/05 02:56:37;;;;;;;5.50;3.00;;;;;;;-4.11;81.34;100340.02;109108;1253;58890;-64
2024/01/05 02:59:04;;;;;;;4.90;3.10;;;;;;;-4.09;81.54;100339.95;108999;1252;138817;-64
2024/01/05 03:01:31;;;;;;;6.60;3.20;;;;;;;-4.04;81.77;100337.42;109141;1252;73288;-59
2024/01/05 03:04:00;;;;;;;5.40;3.10;;;;;;;-3.98;82.08;100342.03;109098;1252;66303;-58
2024/01/05 03:06:27;;;;;;;9.40;5.70;;;;;;;-3.87;82.36;100339.05;107278;1253;138679;-59
2024/01/05 03:08:53;;;;;;;4.40;2.70;;;;;;;-3.76;82.53;100338.40;105234;1253;61161;-64
2024/01/05 03:11:20;;;;;;;4.90;2.70;;;;;;;-3.65;82.66;100338.16;105300;1254;140709;-59
2024/01/05 03:13:47;;;;;;;2.70;2.10;;;;;;;-3.53;82.87;100339.90;105329;1253;72728;-65
2024/01/05 03:16:13;;;;;;;6.20;2.80;;;;;;;-3.40;82.96;100334.84;105195;1254;66694;-65
2024/01/05 03:18:40;;;;;;;3.50;2.00;;;;;;;-3.34;82.87;100336.71;105148;1254;138569;-65
2024/01/05 03:21:07;;;;;;;8.70;3.70;;;;;;;-3.32;82.71;100339.38;105207;1256;61378;-65
2024/01/05 03:23:33;;;;;;;9.00;4.70;;;;;;;-3.32;82.48;100340.89;105156;1256;138558;-65
2024/01/05 03:26:00;;;;;;;6.10;2.70;;;;;;;-3.30;82.64;100343.13;105226;1252;75323;-65
2024/01/05 03:28:27;;;;;;;15.10;6.90;;;;;;;-3.26;82.72;100344.81;105207;1256;66537;-65
2024/01/05 03:30:53;;;;;;;28.50;12.80;;;;;;;-3.20;82.74;100347.98;105012;1256;138631;-66
2024/01/05 03:33:20;;;;;;;19.60;10.30;;;;;;;-3.15;82.95;100355.89;105077;1253;61348;-65
2024/01/05 03:35:47;;;;;;;23.20;11.10;;;;;;;-3.14;82.65;100357.84;105140;1254;138387;-64
2024/01/05 03:38:14;;;;;;;20.00;9.80;;;;;;;-3.12;82.77;100354.77;105199;1255;75327;-65
2024/01/05 03:40:40;;;;;;;31.90;16.20;;;;;;;-3.05;82.80;100353.67;105266;1254;65365;-66
2024/01/05 03:43:07;;;;;;;20.30;9.00;;;;;;;-3.02;82.87;100353.75;105138;1256;138184;-67
2024/01/05 03:45:34;;;;;;;5.80;3.70;;;;;;;-3.00;82.80;100354.10;109084;1252;61132;-64
2024/01/05 03:48:00;;;;;;;11.80;5.40;;;;;;;-2.97;82.86;100348.80;108966;1256;138782;-64
2024/01/05 03:50:27;;;;;;;7.30;2.90;;;;;;;-2.96;82.68;100346.97;109112;1253;73820;-64
2024/01/05 03:52:54;;;;;;;3.70;2.50;;;;;;;-2.96;82.57;100349.41;109097;1252;67789;-65
2024/01/05 03:55:20;;;;;;;5.90;2.70;;;;;;;-2.98;82.37;100348.58;108920;1253;138894;-65
2024/01/05 03:57:47;;;;;;;5.00;2.50;;;;;;;-3.03;82.28;100349.70;109121;1252;59141;-59
2024/01/05 04:00:14;;;;;;;4.10;2.60;;;;;;;-3.10;82.17;100348.19;108982;1253;138221;-59
2024/01/05 04:02:40;;;;;;;4.00;2.50;;;;;;;-3.15;82.17;100344.95;109123;1253;74715;-60
2024/01/05 04:05:08;;;;;;;4.00;2.30;;;;;;;-3.19;82.05;100342.05;109168;1253;65726;-59
2024/01/05 04:07:35;;;;;;;4.10;2.50;;;;;;;-3.23;82.06;100338.19;109007;1253;138907;-59
2024/01/05 04:10:03;;;;;;;3.40;2.20;;;;;;;-3.27;82.12;100338.70;109110;1253;59145;-59
2024/01/05 04:12:29;;;;;;;4.50;2.00;;;;;;;-3.31;82.08;100345.12;109001;1253;138527;-66
2024/01/05 04:14:56;;;;;;;4.80;2.00;;;;;;;-3.36;81.97;100349.06;109132;1253;74903;-65
2024/01/05 04:17:22;;;;;;;3.90;2.50;;;;;;;-3.42;81.96;100353.08;108980;1253;139164;-64
2024/01/05 04:19:49;;;;;;;4.60;2.50;;;;;;;-3.49;82.04;100352.89;109183;1252;72572;-66
2024/01/05 04:22:16;;;;;;;6.10;2.40;;;;;;;-3.55;82.00;100357.94;109172;1253;60205;-65
2024/01/05 04:24:42;;;;;;;5.80;3.60;;;;;;;-3.61;82.00;100361.11;108871;1252;138477;-65
2024/01/05 04:27:09;;;;;;;6.40;3.90;;;;;;;-3.66;82.03;100364.83;109119;1256;75843;-65
2024/01/05 04:29:35;;;;;;;5.20;3.30;;;;;;;-3.73;81.99;100370.52;109037;1253;138331;-65
2024/01/05 04:32:02;;;;;;;6.20;3.20;;;;;;;-3.79;82.03;100371.21;109162;1252;71017;-59
2024/01/05 04:34:29;;;;;;;6.60;3.30;;;;;;;-3.85;82.11;100372.48;109051;1253;60250;-65
2024/01/05 04:36:55;;;;;;;6.30;3.00;;;;;;;-3.91;82.17;100376.00;108995;1252;138346;-65
2024/01/05 04:39:22;;;;;;;7.10;2.70;;;;;;;-3.96;82.18;100379.87;109110;1253;73917;-65
2024/01/05 04:41:49;;;;;;;5.10;2.80;;;;;;;-4.01;82.31;100379.34;109008;1254;140221;-59
2024/01/05 04:44:15;;;;;;;3.60;2.40;;;;;;;-4.08;82.43;100377.94;109163;1253;73857;-59
2024/01/05 04:46:42;;;;;;;6.70;2.90;;;;;;;-4.10;82.48;100384.83;109102;1253;59440;-66
2024/01/05 04:49:09;;;;;;;5.70;2.80;;;;;;;-4.14;82.53;100387.98;108970;1252;138343;-65
2024/01/05 04:51:36;;;;;;;4.20;2.60;;;;;;;-4.16;82.62;100387.22;109146;1253;73773;-60
2024/01/05 04:54:03;;;;;;;4.70;2.70;;;;;;;-4.18;82.67;100390.01;105699;1254;138749;-59
2024/01/05 04:56:30;;;;;;;5.50;2.50;;;;;;;-4.20;82.70;100388.99;105637;1254;72374;-66
2024/01/05 04:58:57;;;;;;;9.00;3.70;;;;;;;-4.24;82.69;100385.75;105768;1254;61239;-66
2024/01/05 05:01:23;;;;;;;3.80;2.40;;;;;;;-4.27;82.73;100389.96;105548;1254;138877;-66
2024/01/05 05:03:50;;;;;;;4.20;2.60;;;;;;;-4.29;82.83;100396.02;105739;1256;75302;-67
2024/01/05 05:06:17;;;;;;;3.90;2.20;;;;;;;-4.31;82.90;100399.79;105683;1256;140398;-68
2024/01/05 05:08:43;;;;;;;3.90;2.40;;;;;;;-4.32;82.95;100404.70;105620;1252;71880;-68
2024/01/05 05:11:10;;;;;;;5.40;2.60;;;;;;;-4.35;83.04;100406.89;105628;1254;61386;-60
2024/01/05 05:13:37;;;;;;;7.90;3.60;;;;;;;-4.37;83.15;100410.52;105391;1254;138209;-61
2024/01/05 05:16:04;;;;;;;7.70;3.40;;;;;;;-4.39;83.11;100421.98;105692;1254;74827;-67
2024/01/05 05:18:30;;;;;;;4.60;3.00;;;;;;;-4.41;83.15;100422.11;105502;1254;144107;-68
2024/01/05 05:20:57;;;;;;;5.60;3.40;;;;;;;-4.44;83.18;100427.01;105619;1257;72419;-66
2024/01/05 05:23:24;;;;;;;6.00;3.20;;;;;;;-4.48;83.21;100431.02;105539;1256;61899;-68
2024/01/05 05:25:50;;;;;;;6.50;3.50;;;;;;;-4.51;83.22;100431.17;105563;1253;138813;-67
2024/01/05 05:28:17;;;;;;;8.10;3.50;;;;;;;-4.53;83.16;100432.54;105590;1253;73901;-68
2024/01/05 05:30:43;;;;;;;7.30;3.70;;;;;;;-4.54;83.15;100433.80;105604;1254;138369;-68
2024/01/05 05:33:10;;;;;;;8.80;3.50;;;;;;;-4.56;83.16;100436.40;105589;1252;73941;-69
2024/01/05 05:35:37;;;;;;;5.30;3.30;;;;;;;-4.55;83.20;100436.95;105452;1254;139546;-67
2024/01/05 05:38:03;;;;;;;5.80;3.50;;;;;;;-4.51;83.46;100440.00;105583;1257;61242;-66
2024/01/05 05:40:30;;;;;;;5.70;3.20;;;;;;;-4.43;83.59;100444.29;105605;1254;74813;-64
2024/01/05 05:42:57;;;;;;;7.60;3.40;;;;;;;-4.30;83.90;100445.94;105477;1256;145668;-65
2024/01/05 05:45:23;;;;;;;7.50;3.70;;;;;;;-4.19;83.89;100449.95;105687;1256;70746;-64
2024/01/05 05:47:51;;;;;;;6.60;3.10;;;;;;;-4.12;83.74;100450.63;105635;1254;138933;-64
2024/01/05 05:50:17;;;;;;;6.00;3.80;;;;;;;-4.05;83.64;100449.58;105622;1252;61336;-58
2024/01/05 05:52:46;;;;;;;5.50;3.00;;;;;;;-3.98;83.70;100452.42;105612;1253;75316;-66
2024/01/05 05:55:12;;;;;;;5.60;3.60;;;;;;;-3.87;83.70;100455.78;105584;1254;139683;-59
2024/01/05 05:57:40;;;;;;;5.80;3.50;;;;;;;-3.76;83.74;100459.93;105858;1256;72851;-61
2024/01/05 06:00:08;;;;;;;4.70;3.20;;;;;;;-3.67;83.68;100461.24;105724;1253;138586;-64
2024/01/05 06:02:34;;;;;;;7.50;3.70;;;;;;;-3.62;83.47;100468.58;109194;1253;61396;-63
2024/01/05 06:05:01;;;;;;;5.80;3.70;;;;;;;-3.59;83.35;100475.31;109151;1253;76036;-64
2024/01/05 06:07:28;;;;;;;6.70;3.90;;;;;;;-3.59;83.10;100480.08;108997;1256;138739;-58
2024/01/05 06:09:55;;;;;;;7.80;3.70;;;;;;;-3.63;82.87;100486.27;109158;1252;74108;-59
2024/01/05 06:12:21;;;;;;;7.70;4.20;;;;;;;-3.69;82.67;100491.98;109014;1251;144679;-65
2024/01/05 06:14:48;;;;;;;9.40;4.00;;;;;;;-3.75;82.51;100497.56;109173;1253;59979;-66
2024/01/05 06:17:15;;;;;;;7.60;4.30;;;;;;;-3.79;82.44;100500.17;109134;1252;75905;-60
2024/01/05 06:19:43;;;;;;;8.00;3.80;;;;;;;-3.82;82.56;100502.35;109051;1253;139951;-60
2024/01/05 06:22:09;;;;;;;12.90;5.20;;;;;;;-3.84;82.50;100504.05;106853;1254;72046;-63
2024/01/05 06:24:36;;;;;;;8.70;4.60;;;;;;;-3.85;82.45;100509.30;105558;1253;138875;-60
2024/01/05 06:27:03;;;;;;;8.50;4.50;;;;;;;-3.85;82.48;100514.95;105775;1256;61339;-60
2024/01/05 06:29:30;;;;;;;18.90;13.90;;;;;;;-3.86;82.43;100519.36;109039;1254;75027;-63
2024/01/05 06:31:57;;;;;;;7.50;4.60;;;;;;;-3.87;82.44;100519.10;109149;1253;67925;-60
2024/01/05 06:34:23;;;;;;;6.80;4.50;;;;;;;-3.85;82.64;100521.11;109140;1253;71040;-59
2024/01/05 06:36:50;;;;;;;8.70;5.00;;;;;;;-3.82;82.61;100520.64;109064;1255;138249;-61
2024/01/05 06:39:17;;;;;;;9.00;5.70;;;;;;;-3.81;82.53;100526.10;109273;1256;59684;-63
2024/01/05 06:41:43;;;;;;;13.00;6.20;;;;;;;-3.81;82.45;100527.08;109229;1253;137922;-63
2024/01/05 06:44:10;;;;;;;12.70;6.60;;;;;;;-3.84;82.30;100524.10;109367;1252;64430;-58
2024/01/05 06:46:37;;;;;;;13.80;6.50;;;;;;;-3.89;82.20;100524.89;109344;1253;72525;-58
2024/01/05 06:49:03;;;;;;;10.10;5.60;;;;;;;-3.96;82.11;100519.77;109204;1252;138739;-64
2024/01/05 06:51:37;;;;;;;11.60;6.80;;;;;;;-3.98;82.29;100520.58;109350;1252;60774;-64
2024/01/05 06:54:03;;;;;;;;;;;;;;;-3.99;82.35;100521.88;109234;1254;138725;-60
2024/01/05 06:56:32;;;;;;;12.00;6.50;;;;;;;-3.99;82.39;100522.44;109353;1253;65874;-59
2024/01/05 06:59:05;;;;;;;9.30;6.30;;;;;;;-3.96;82.50;100526.92;109336;1251;72991;-59
2024/01/05 07:01:32;;;;;;;10.00;5.80;;;;;;;-3.92;82.53;100524.52;109224;1256;139120;-59
2024/01/05 07:03:59;;;;;;;16.40;5.90;;;;;;;-3.86;82.57;100529.62;109365;1254;60395;-59
2024/01/05 07:06:25;;;;;;;9.90;5.20;;;;;;;-3.79;82.68;100531.41;109287;1253;138722;-59
2024/01/05 07:08:52;;;;;;;7.50;4.80;;;;;;;-3.71;82.89;100528.77;109409;1252;67440;-60
2024/01/05 07:11:22;;;;;;;9.50;5.40;;;;;;;-3.63;82.67;100529.64;109402;1253;73090;-60
2024/01/05 07:13:49;;;;;;;8.50;5.80;;;;;;;-3.60;82.62;100535.09;109223;1256;138351;-59
2024/01/05 07:16:17;;;;;;;14.50;7.30;;;;;;;-3.62;82.36;100536.13;109377;1252;59535;-60
2024/01/05 07:18:44;;;;;;;12.10;6.90;;;;;;;-3.66;82.15;100541.13;109232;1254;138568;-60
2024/01/05 07:21:11;;;;;;;12.00;7.00;;;;;;;-3.69;82.18;100540.55;109365;1251;67313;-58
2024/01/05 07:23:37;;;;;;;14.50;6.50;;;;;;;-3.72;82.14;100542.04;109286;1253;138164;-59
2024/01/05 07:26:04;;;;;;;11.90;6.60;;;;;;;-3.75;82.10;100544.05;109343;1252;58941;-59
2024/01/05 07:28:31;;;;;;;12.80;6.60;;;;;;;-3.76;82.13;100548.38;109361;1251;60325;-60
2024/01/05 07:30:57;;;;;;;11.70;6.40;;;;;;;-3.76;82.27;100549.42;106907;1256;138094;-61
2024/01/05 07:33:24;;;;;;;12.90;6.30;;;;;;;-3.71;82.45;100549.96;105562;1260;65556;-60
2024/01/05 07:35:51;;;;;;;9.80;6.10;;;;;;;-3.65;82.62;100553.73;105686;1256;138903;-60
2024/01/05 07:38:18;;;;;;;10.60;6.30;;;;;;;-3.57;82.59;100554.35;105693;1254;61756;-60
2024/01/05 07:40:45;;;;;;;8.00;5.50;;;;;;;-3.51;82.67;100555.99;105634;1256;61285;-61
2024/01/05 07:43:12;;;;;;;12.20;7.70;;;;;;;-3.49;82.57;100556.85;105615;1254;139537;-65
2024/01/05 07:45:39;;;;;;;27.30;15.50;;;;;;;-3.50;82.45;100554.69;105789;1256;67411;-67
2024/01/05 07:48:06;;;;;;;31.30;17.90;;;;;;;-3.54;82.32;100558.70;105616;1256;138777;-59
2024/01/05 07:50:33;;;;;;;29.20;14.50;;;;;;;-3.57;82.20;100560.48;105635;1256;61349;-60
2024/01/05 07:52:59;;;;;;;19.90;11.20;;;;;;;-3.60;82.17;100566.77;105659;1256;62265;-60
2024/01/05 07:55:26;;;;;;;22.30;12.80;;;;;;;-3.61;82.28;100567.88;105652;1257;138687;-59
2024/01/05 07:57:53;;;;;;;29.70;15.10;;;;;;;-3.62;82.29;100570.54;105669;1256;65637;-60
2024/01/05 08:00:21;;;;;;;28.80;15.20;;;;;;;-3.62;82.33;100573.95;105638;1253;138524;-60
2024/01/05 08:02:49;;;;;;;29.30;14.50;;;;;;;-3.61;82.39;100582.34;109299;1253;58965;-59
2024/01/05 08:05:15;;;;;;;22.70;13.00;;;;;;;-3.59;82.42;100583.52;109458;1253;59165;-58
2024/01/05 08:07:45;;;;;;;21.90;11.50;;;;;;;-3.54;82.53;100590.77;109155;1252;138123;-59
2024/01/05 08:10:12;;;;;;;20.40;11.30;;;;;;;-3.49;82.42;100592.49;107861;1256;66839;-64
2024/01/05 08:12:38;;;;;;;19.40;10.20;;;;;;;-3.47;82.36;100593.84;105526;1254;139549;-65
2024/01/05 08:15:06;;;;;;;16.30;8.30;;;;;;;-3.49;82.15;100593.58;105306;1260;61359;-60
2024/01/05 08:17:32;;;;;;;18.20;8.90;;;;;;;-3.53;82.03;100592.25;108858;1254;138792;-60
2024/01/05 08:19:59;;;;;;;15.30;9.00;;;;;;;-3.52;82.10;100596.37;109370;1254;73322;-60
2024/01/05 08:22:26;;;;;;;19.70;10.40;;;;;;;-3.51;81.99;100599.06;109356;1252;64714;-60
2024/01/05 08:24:53;;;;;;;28.90;14.50;;;;;;;-3.47;81.85;100605.31;109217;1254;139335;-65
2024/01/05 08:27:19;;;;;;;36.60;17.60;;;;;;;-3.46;81.86;100611.92;109358;1252;59456;-60
2024/01/05 08:29:46;;;;;;;36.30;17.00;;;;;;;-3.42;81.89;100618.43;109323;1254;139582;-59
2024/01/05 08:32:13;;;;;;;31.70;15.80;;;;;;;-3.35;81.92;100619.55;109377;1254;75045;-60
2024/01/05 08:34:39;;;;;;;23.50;13.20;;;;;;;-3.17;82.31;100620.40;109398;1254;65029;-60
2024/01/05 08:37:06;;;;;;;24.50;13.10;;;;;;;-2.92;82.46;100624.03;109267;1254;138215;-65
2024/01/05 08:39:33;;;;;;;21.40;12.50;;;;;;;-2.60;82.67;100628.31;109349;1251;59019;-63
2024/01/05 08:41:59;;;;;;;21.10;11.20;;;;;;;-2.29;82.91;100630.50;109293;1253;139753;-58
2024/01/05 08:44:26;;;;;;;17.70;10.20;;;;;;;-1.96;82.79;100628.91;109405;1252;72865;-58
2024/01/05 08:46:53;;;;;;;16.30;9.80;;;;;;;-1.70;82.58;100626.33;109392;1254;66312;-63
2024/01/05 08:49:20;;;;;;;17.70;9.10;;;;;;;-1.50;82.33;100626.69;109297;1252;137933;-64
2024/01/05 08:51:46;;;;;;;17.70;8.60;;;;;;;-1.31;82.14;100630.45;109330;1252;58998;-64
2024/01/05 08:54:13;;;;;;;17.20;8.80;;;;;;;-1.12;81.94;100636.95;109249;1254;139619;-65
2024/01/05 08:56:40;;;;;;;16.10;9.30;;;;;;;-0.93;81.84;100642.91;108096;1255;75666;-59
2024/01/05 08:59:06;;;;;;;16.40;9.50;;;;;;;-0.77;81.72;100647.58;105774;1256;65928;-59
2024/01/05 09:01:33;;;;;;;15.70;8.60;;;;;;;-0.66;81.49;100647.88;105660;1256;138607;-65
2024/01/05 09:04:00;;;;;;;14.80;8.10;;;;;;;-0.57;81.08;100650.67;105731;1257;61339;-63
2024/01/05 09:06:27;;;;;;;12.90;7.10;;;;;;;-0.56;80.74;100651.30;105576;1257;138575;-65
2024/01/05 09:08:54;;;;;;;13.70;7.40;;;;;;;-0.49;80.41;100655.89;105798;1257;74989;-66
2024/01/05 09:11:21;;;;;;;14.20;6.60;;;;;;;-0.45;80.19;100657.55;105800;1254;67748;-64
2024/01/05 09:13:47;;;;;;;12.80;7.00;;;;;;;-0.40;79.76;100660.63;105648;1254;137982;-66
2024/01/05 09:16:14;;;;;;;15.60;8.00;;;;;;;-0.35;79.77;100661.79;105779;1258;61276;-63
2024/01/05 09:18:42;;;;;;;14.40;7.20;;;;;;;-0.28;79.55;100663.83;105680;1255;137936;-64
2024/01/05 09:21:10;;;;;;;13.10;7.40;;;;;;;-0.22;79.48;100666.98;105750;1256;73381;-66
2024/01/05 09:23:37;;;;;;;14.50;7.00;;;;;;;-0.14;79.69;100665.59;105538;1254;65672;-64
2024/01/05 09:26:04;;;;;;;10.70;6.20;;;;;;;-0.09;79.39;100668.35;105646;1255;71586;-60
2024/01/05 09:28:30;;;;;;;14.60;7.30;;;;;;;-0.09;78.63;100670.11;105653;1254;61354;-61
2024/01/05 09:30:57;;;;;;;8.90;6.00;;;;;;;-0.15;78.37;100666.59;105604;1258;138675;-61
2024/01/05 09:33:24;;;;;;;11.20;6.20;;;;;;;-0.19;78.24;100668.09;105609;1256;73846;-65
2024/01/05 09:35:51;;;;;;;11.90;6.90;;;;;;;-0.13;78.27;100670.16;105696;1258;138553;-63
2024/01/05 09:38:17;;;;;;;15.60;7.10;;;;;;;-0.12;78.09;100672.34;105629;1257;73609;-64
2024/01/05 09:40:44;;;;;;;12.80;6.70;;;;;;;-0.06;78.27;100674.77;105308;1259;193253;-62
2024/01/05 09:43:10;;;;;;;13.70;6.90;;;;;;;-0.06;77.95;100673.76;105421;1254;138195;-60
2024/01/05 09:45:38;;;;;;;11.20;6.60;;;;;;;-0.04;78.07;100678.70;105664;1251;75409;-66
2024/01/05 09:48:05;;;;;;;14.50;7.40;;;;;;;-0.03;77.79;100675.00;105340;1257;138355;-63
2024/01/05 09:50:32;;;;;;;13.00;7.10;;;;;;;-0.05;77.58;100677.80;105731;1256;71103;-65
2024/01/05 09:52:59;;;;;;;12.30;6.70;;;;;;;-0.12;77.45;100680.27;105597;1257;61958;-63
2024/01/05 09:55:26;;;;;;;12.60;6.30;;;;;;;-0.25;77.05;100681.11;105545;1257;137877;-60
2024/01/05 09:57:52;;;;;;;10.50;6.00;;;;;;;-0.47;76.78;100680.48;105693;1257;75328;-65
2024/01/05 10:00:20;;;;;;;13.10;7.40;;;;;;;-0.64;76.98;100679.55;105760;1256;138350;-61
2024/01/05 10:02:56;;;;;;;17.10;8.40;;;;;;;-0.76;77.08;100675.62;105560;1254;71893;-60
2024/01/05 10:05:25;;;;;;;47.90;25.40;;;;;;;-0.91;77.21;100670.60;109003;1254;61186;-59
2024/01/05 10:07:51;;;;;;;14.70;7.90;;;;;;;-1.02;77.29;100671.63;109270;1253;138101;-59
2024/01/05 10:10:18;;;;;;;20.50;10.60;;;;;;;-1.06;77.31;100671.84;109373;1253;73811;-59
2024/01/05 10:12:46;;;;;;;20.00;10.20;;;;;;;-1.07;77.36;100670.52;109194;1254;139274;-64
2024/01/05 10:15:13;;;;;;;17.30;10.00;;;;;;;-1.06;77.58;100672.30;109393;1257;70580;-64
2024/01/05 10:17:39;;;;;;;49.60;21.10;;;;;;;-1.04;77.32;100674.19;109290;1253;139101;-64
2024/01/05 10:20:11;;;;;;;34.50;13.70;;;;;;;-0.99;77.55;100669.35;109278;1254;59265;-64
2024/01/05 10:22:38;;;;;;;27.30;11.90;;;;;;;-0.93;77.48;100671.66;109328;1254;74681;-64
2024/01/05 10:25:15;;;;;;;25.10;9.80;;;;;;;-0.87;77.27;100670.05;109169;1257;138268;-64
2024/01/05 10:27:41;;;;;;;14.00;6.90;;;;;;;-0.87;77.25;100668.80;109350;1252;70613;-64
2024/01/05 10:30:10;;;;;;;12.50;6.40;;;;;;;-0.88;77.10;100669.27;109260;1252;138182;-64
2024/01/05 10:32:38;;;;;;;11.40;5.70;;;;;;;-0.89;76.94;100665.23;109387;1253;59541;-59
2024/01/05 10:35:07;;;;;;;11.80;6.30;;;;;;;-0.92;76.68;100662.74;109395;1254;74721;-59
2024/01/05 10:37:34;;;;;;;10.00;5.30;;;;;;;-0.94;76.67;100663.84;109250;1255;138323;-59
2024/01/05 10:40:04;;;;;;;11.80;5.50;;;;;;;-0.97;76.57;100667.44;108998;1254;73770;-60
2024/01/05 10:42:32;;;;;;;10.70;5.40;;;;;;;-0.98;76.61;100668.77;108784;1252;137768;-64
2024/01/05 10:45:01;;;;;;;17.40;7.00;;;;;;;-0.98;76.60;100671.48;106418;1256;61273;-65
2024/01/05 10:47:31;;;;;;;28.60;11.60;;;;;;;-0.95;76.79;100668.77;109370;1254;74807;-65
2024/01/05 10:49:57;;;;;;;27.30;11.00;;;;;;;-0.87;76.85;100671.39;109235;1255;138039;-65
2024/01/05 10:52:27;;;;;;;37.30;16.90;;;;;;;-0.72;77.10;100673.44;109361;1254;71321;-64
2024/01/05 10:54:54;;;;;;;21.00;9.40;;;;;;;-0.49;77.27;100684.85;109137;1254;139161;-64
2024/01/05 10:57:21;;;;;;;19.00;9.50;;;;;;;-0.25;77.21;100678.55;109310;1253;58926;-63
2024/01/05 10:59:49;;;;;;;11.90;7.30;;;;;;;-0.05;77.01;100681.05;109321;1254;140770;-63
2024/01/05 11:02:26;;;;;;;13.30;7.50;;;;;;;0.08;76.71;100681.92;109358;1254;66970;-59
2024/01/05 11:05:08;;;;;;;17.60;9.30;;;;;;;0.17;76.58;100687.86;109352;1253;72910;-63
2024/01/05 11:07:34;;;;;;;10.70;6.50;;;;;;;0.20;76.12;100693.75;109265;1252;138446;-59
2024/01/05 11:10:01;;;;;;;18.10;7.60;;;;;;;0.19;75.68;100694.21;109372;1253;59388;-59